sensor_id;sensor_type;location;lat;lon;timestamp;P1;durP1;ratioP1;P2;durP2;ratioP2
35223;SDS011;21367;51.930;8.112;2022-12-29T00:03:24;4.10;;;1.40;;
35223;SDS011;21367;51.930;8.112;2022-12-29T00:13:42;1.80;;;1.00;;
35223;SDS011;21367;51.930;8.112;2022-12-29T00:19:02;1.90;;;1.10;;
35223;SDS011;21367;51.930;8.112;2022-12-29T00:24:08;1.90;;;0.95;;
35223;SDS011;21367;51.930;8.112;2022-12-29T00:29:27;5.53;;;0.98;;
35223;SDS011;21367;51.930;8.112;2022-12-29T00:34:46;1.80;;;1.00;;
35223;SDS011;21367;51.930;8.112;2022-12-29T00:40:03;1.73;;;1.00;;
35223;SDS011;21367;51.930;8.112;2022-12-29T00:45:19;1.35;;;0.88;;
35223;SDS011;21367;51.930;8.112;2022-12-29T00:50:26;2.15;;;0.93;;
35223;SDS011;21367;51.930;8.112;2022-12-29T01:00:33;1.55;;;0.75;;
35223;SDS011;21367;51.930;8.112;2022-12-29T01:05:40;1.48;;;0.70;;
35223;SDS011;21367;51.930;8.112;2022-12-29T01:10:43;2.60;;;0.80;;
35223;SDS011;21367;51.930;8.112;2022-12-29T01:15:49;1.15;;;0.80;;
35223;SDS011;21367;51.930;8.112;2022-12-29T01:21:00;3.70;;;0.77;;
35223;SDS011;21367;51.930;8.112;2022-12-29T01:26:08;2.65;;;0.77;;
35223;SDS011;21367;51.930;8.112;2022-12-29T01:31:13;0.55;;;0.32;;
35223;SDS011;21367;51.930;8.112;2022-12-29T01:36:20;0.85;;;0.40;;
35223;SDS011;21367;51.930;8.112;2022-12-29T01:41:23;0.43;;;0.30;;
35223;SDS011;21367;51.930;8.112;2022-12-29T01:46:29;1.23;;;0.38;;
35223;SDS011;21367;51.930;8.112;2022-12-29T01:51:39;0.60;;;0.40;;
35223;SDS011;21367;51.930;8.112;2022-12-29T01:56:46;3.00;;;0.50;;
35223;SDS011;21367;51.930;8.112;2022-12-29T02:01:51;0.55;;;0.45;;
35223;SDS011;21367;51.930;8.112;2022-12-29T02:06:58;0.50;;;0.40;;
35223;SDS011;21367;51.930;8.112;2022-12-29T02:12:05;1.00;;;0.40;;
35223;SDS011;21367;51.930;8.112;2022-12-29T02:17:10;1.10;;;0.50;;
35223;SDS011;21367;51.930;8.112;2022-12-29T02:22:26;5.65;;;0.30;;
35223;SDS011;21367;51.930;8.112;2022-12-29T02:27:48;0.43;;;0.40;;
35223;SDS011;21367;51.930;8.112;2022-12-29T02:39:07;0.30;;;0.30;;
35223;SDS011;21367;51.930;8.112;2022-12-29T02:44:16;2.38;;;0.30;;
35223;SDS011;21367;51.930;8.112;2022-12-29T02:49:30;0.73;;;0.28;;
35223;SDS011;21367;51.930;8.112;2022-12-29T02:54:42;0.40;;;0.28;;
35223;SDS011;21367;51.930;8.112;2022-12-29T02:59:47;0.52;;;0.30;;
35223;SDS011;21367;51.930;8.112;2022-12-29T03:05:05;0.90;;;0.13;;
35223;SDS011;21367;51.930;8.112;2022-12-29T03:10:28;1.55;;;0.20;;
35223;SDS011;21367;51.930;8.112;2022-12-29T03:15:40;2.05;;;0.15;;
35223;SDS011;21367;51.930;8.112;2022-12-29T03:21:00;0.88;;;0.22;;
35223;SDS011;21367;51.930;8.112;2022-12-29T03:26:11;0.20;;;0.17;;
35223;SDS011;21367;51.930;8.112;2022-12-29T03:31:19;0.50;;;0.28;;
35223;SDS011;21367;51.930;8.112;2022-12-29T03:36:29;0.57;;;0.20;;
35223;SDS011;21367;51.930;8.112;2022-12-29T03:41:42;0.20;;;0.17;;
35223;SDS011;21367;51.930;8.112;2022-12-29T03:46:48;1.02;;;0.32;;
35223;SDS011;21367;51.930;8.112;2022-12-29T03:51:53;2.13;;;0.43;;
35223;SDS011;21367;51.930;8.112;2022-12-29T03:57:01;4.55;;;0.40;;
35223;SDS011;21367;51.930;8.112;2022-12-29T04:02:16;0.40;;;0.30;;
35223;SDS011;21367;51.930;8.112;2022-12-29T04:07:21;0.60;;;0.40;;
35223;SDS011;21367;51.930;8.112;2022-12-29T04:12:29;0.47;;;0.30;;
35223;SDS011;21367;51.930;8.112;2022-12-29T04:17:34;3.72;;;0.60;;
35223;SDS011;21367;51.930;8.112;2022-12-29T04:22:39;0.85;;;0.40;;
35223;SDS011;21367;51.930;8.112;2022-12-29T04:27:46;3.30;;;0.60;;
35223;SDS011;21367;51.930;8.112;2022-12-29T04:33:08;2.65;;;0.60;;
35223;SDS011;21367;51.930;8.112;2022-12-29T04:38:11;3.55;;;0.40;;
35223;SDS011;21367;51.930;8.112;2022-12-29T04:43:18;1.33;;;0.40;;
35223;SDS011;21367;51.930;8.112;2022-12-29T04:48:41;4.95;;;0.60;;
35223;SDS011;21367;51.930;8.112;2022-12-29T04:53:44;1.50;;;0.43;;
35223;SDS011;21367;51.930;8.112;2022-12-29T04:58:51;0.70;;;0.40;;
35223;SDS011;21367;51.930;8.112;2022-12-29T05:03:55;1.33;;;0.38;;
35223;SDS011;21367;51.930;8.112;2022-12-29T05:08:59;1.88;;;0.45;;
35223;SDS011;21367;51.930;8.112;2022-12-29T05:14:06;1.15;;;0.40;;
35223;SDS011;21367;51.930;8.112;2022-12-29T05:19:11;2.45;;;0.60;;
35223;SDS011;21367;51.930;8.112;2022-12-29T05:24:15;0.85;;;0.20;;
35223;SDS011;21367;51.930;8.112;2022-12-29T05:29:22;3.25;;;0.40;;
35223;SDS011;21367;51.930;8.112;2022-12-29T05:34:27;2.20;;;0.45;;
35223;SDS011;21367;51.930;8.112;2022-12-29T05:39:30;0.60;;;0.28;;
35223;SDS011;21367;51.930;8.112;2022-12-29T05:44:40;3.42;;;0.40;;
35223;SDS011;21367;51.930;8.112;2022-12-29T05:49:52;0.75;;;0.40;;
35223;SDS011;21367;51.930;8.112;2022-12-29T05:55:15;3.72;;;0.40;;
35223;SDS011;21367;51.930;8.112;2022-12-29T06:00:24;5.25;;;0.50;;
35223;SDS011;21367;51.930;8.112;2022-12-29T06:05:28;11.73;;;0.85;;
35223;SDS011;21367;51.930;8.112;2022-12-29T06:10:32;4.25;;;0.28;;
35223;SDS011;21367;51.930;8.112;2022-12-29T06:15:42;3.33;;;0.40;;
35223;SDS011;21367;51.930;8.112;2022-12-29T06:20:45;3.42;;;0.45;;
35223;SDS011;21367;51.930;8.112;2022-12-29T06:25:51;0.43;;;0.30;;
35223;SDS011;21367;51.930;8.112;2022-12-29T06:30:58;2.53;;;0.38;;
35223;SDS011;21367;51.930;8.112;2022-12-29T06:36:03;4.32;;;0.68;;
35223;SDS011;21367;51.930;8.112;2022-12-29T06:41:07;4.78;;;0.75;;
35223;SDS011;21367;51.930;8.112;2022-12-29T06:46:32;10.25;;;1.05;;
35223;SDS011;21367;51.930;8.112;2022-12-29T06:51:36;9.95;;;0.90;;
35223;SDS011;21367;51.930;8.112;2022-12-29T06:56:40;6.18;;;1.00;;
35223;SDS011;21367;51.930;8.112;2022-12-29T07:01:46;8.05;;;1.00;;
35223;SDS011;21367;51.930;8.112;2022-12-29T07:06:50;7.05;;;0.88;;
35223;SDS011;21367;51.930;8.112;2022-12-29T07:11:53;3.15;;;0.60;;
35223;SDS011;21367;51.930;8.112;2022-12-29T07:17:00;8.45;;;1.00;;
35223;SDS011;21367;51.930;8.112;2022-12-29T07:22:05;8.18;;;0.93;;
35223;SDS011;21367;51.930;8.112;2022-12-29T07:27:09;6.72;;;1.08;;
35223;SDS011;21367;51.930;8.112;2022-12-29T07:32:15;7.32;;;1.85;;
35223;SDS011;21367;51.930;8.112;2022-12-29T07:37:20;9.02;;;1.75;;
35223;SDS011;21367;51.930;8.112;2022-12-29T07:42:24;4.93;;;1.27;;
35223;SDS011;21367;51.930;8.112;2022-12-29T07:47:33;7.30;;;1.85;;
35223;SDS011;21367;51.930;8.112;2022-12-29T07:57:41;6.00;;;2.22;;
35223;SDS011;21367;51.930;8.112;2022-12-29T08:02:47;3.05;;;1.02;;
35223;SDS011;21367;51.930;8.112;2022-12-29T08:07:51;9.13;;;1.60;;
35223;SDS011;21367;51.930;8.112;2022-12-29T08:12:54;10.65;;;1.48;;
35223;SDS011;21367;51.930;8.112;2022-12-29T08:18:01;5.57;;;0.90;;
35223;SDS011;21367;51.930;8.112;2022-12-29T08:23:06;7.00;;;1.15;;
35223;SDS011;21367;51.930;8.112;2022-12-29T08:28:10;4.68;;;1.30;;
35223;SDS011;21367;51.930;8.112;2022-12-29T08:33:16;5.35;;;0.80;;
35223;SDS011;21367;51.930;8.112;2022-12-29T08:43:24;6.47;;;2.10;;
35223;SDS011;21367;51.930;8.112;2022-12-29T08:48:30;7.53;;;1.33;;
35223;SDS011;21367;51.930;8.112;2022-12-29T08:53:34;11.27;;;1.70;;
35223;SDS011;21367;51.930;8.112;2022-12-29T08:58:38;10.57;;;1.35;;
35223;SDS011;21367;51.930;8.112;2022-12-29T09:03:45;6.78;;;1.67;;
35223;SDS011;21367;51.930;8.112;2022-12-29T09:08:49;5.15;;;2.00;;
35223;SDS011;21367;51.930;8.112;2022-12-29T09:13:53;12.57;;;1.98;;
35223;SDS011;21367;51.930;8.112;2022-12-29T09:19:00;10.30;;;3.00;;
35223;SDS011;21367;51.930;8.112;2022-12-29T09:24:04;7.13;;;2.45;;
35223;SDS011;21367;51.930;8.112;2022-12-29T09:29:08;12.95;;;2.10;;
35223;SDS011;21367;51.930;8.112;2022-12-29T09:34:14;9.93;;;2.80;;
35223;SDS011;21367;51.930;8.112;2022-12-29T09:39:18;14.10;;;2.80;;
35223;SDS011;21367;51.930;8.112;2022-12-29T09:44:23;6.93;;;2.20;;
35223;SDS011;21367;51.930;8.112;2022-12-29T09:49:38;8.73;;;2.38;;
35223;SDS011;21367;51.930;8.112;2022-12-29T09:54:48;9.20;;;1.38;;
35223;SDS011;21367;51.930;8.112;2022-12-29T09:59:57;10.90;;;1.90;;
35223;SDS011;21367;51.930;8.112;2022-12-29T10:05:16;6.13;;;1.20;;
35223;SDS011;21367;51.930;8.112;2022-12-29T10:10:29;8.75;;;1.50;;
35223;SDS011;21367;51.930;8.112;2022-12-29T10:15:40;7.15;;;1.85;;
35223;SDS011;21367;51.930;8.112;2022-12-29T10:20:56;9.68;;;1.63;;
35223;SDS011;21367;51.930;8.112;2022-12-29T10:26:07;9.70;;;1.60;;
35223;SDS011;21367;51.930;8.112;2022-12-29T10:31:18;15.40;;;2.90;;
35223;SDS011;21367;51.930;8.112;2022-12-29T10:36:29;6.75;;;1.30;;
35223;SDS011;21367;51.930;8.112;2022-12-29T10:41:38;10.00;;;1.60;;
35223;SDS011;21367;51.930;8.112;2022-12-29T10:46:52;9.80;;;1.35;;
35223;SDS011;21367;51.930;8.112;2022-12-29T10:52:03;21.60;;;1.30;;
35223;SDS011;21367;51.930;8.112;2022-12-29T10:57:08;19.92;;;1.92;;
35223;SDS011;21367;51.930;8.112;2022-12-29T11:02:24;13.32;;;1.98;;
35223;SDS011;21367;51.930;8.112;2022-12-29T11:07:43;8.60;;;1.17;;
35223;SDS011;21367;51.930;8.112;2022-12-29T11:12:56;7.43;;;1.48;;
35223;SDS011;21367;51.930;8.112;2022-12-29T11:18:01;11.60;;;1.42;;
35223;SDS011;21367;51.930;8.112;2022-12-29T11:23:21;6.10;;;0.68;;
35223;SDS011;21367;51.930;8.112;2022-12-29T11:28:27;13.32;;;1.63;;
35223;SDS011;21367;51.930;8.112;2022-12-29T11:33:32;14.18;;;2.13;;
35223;SDS011;21367;51.930;8.112;2022-12-29T11:38:41;6.37;;;1.17;;
35223;SDS011;21367;51.930;8.112;2022-12-29T11:43:49;7.05;;;0.88;;
35223;SDS011;21367;51.930;8.112;2022-12-29T11:48:54;8.63;;;1.40;;
35223;SDS011;21367;51.930;8.112;2022-12-29T11:54:04;8.15;;;1.10;;
35223;SDS011;21367;51.930;8.112;2022-12-29T11:59:25;18.05;;;1.20;;
35223;SDS011;21367;51.930;8.112;2022-12-29T12:04:39;8.90;;;1.42;;
35223;SDS011;21367;51.930;8.112;2022-12-29T12:09:46;11.57;;;1.58;;
35223;SDS011;21367;51.930;8.112;2022-12-29T12:14:56;12.43;;;1.67;;
35223;SDS011;21367;51.930;8.112;2022-12-29T12:20:21;6.18;;;1.80;;
35223;SDS011;21367;51.930;8.112;2022-12-29T12:25:33;12.98;;;1.30;;
35223;SDS011;21367;51.930;8.112;2022-12-29T12:30:41;9.52;;;1.00;;
35223;SDS011;21367;51.930;8.112;2022-12-29T12:35:52;9.10;;;1.20;;
35223;SDS011;21367;51.930;8.112;2022-12-29T12:41:09;13.48;;;1.45;;
35223;SDS011;21367;51.930;8.112;2022-12-29T12:46:24;11.82;;;1.35;;
35223;SDS011;21367;51.930;8.112;2022-12-29T12:51:42;9.77;;;1.55;;
35223;SDS011;21367;51.930;8.112;2022-12-29T12:56:55;11.00;;;1.65;;
35223;SDS011;21367;51.930;8.112;2022-12-29T13:02:26;14.52;;;1.70;;
35223;SDS011;21367;51.930;8.112;2022-12-29T13:07:41;11.93;;;1.77;;
35223;SDS011;21367;51.930;8.112;2022-12-29T13:12:59;6.07;;;1.20;;
35223;SDS011;21367;51.930;8.112;2022-12-29T13:18:33;14.55;;;2.10;;
35223;SDS011;21367;51.930;8.112;2022-12-29T13:23:48;15.52;;;1.58;;
35223;SDS011;21367;51.930;8.112;2022-12-29T13:29:06;10.85;;;1.85;;
35223;SDS011;21367;51.930;8.112;2022-12-29T13:34:22;19.95;;;1.95;;
35223;SDS011;21367;51.930;8.112;2022-12-29T13:39:34;11.32;;;1.50;;
35223;SDS011;21367;51.930;8.112;2022-12-29T13:44:45;20.70;;;1.42;;
35223;SDS011;21367;51.930;8.112;2022-12-29T13:49:52;18.00;;;1.70;;
35223;SDS011;21367;51.930;8.112;2022-12-29T13:55:00;12.07;;;1.88;;
35223;SDS011;21367;51.930;8.112;2022-12-29T14:00:15;5.18;;;1.30;;
35223;SDS011;21367;51.930;8.112;2022-12-29T14:05:27;10.82;;;1.70;;
35223;SDS011;21367;51.930;8.112;2022-12-29T14:10:34;13.52;;;1.60;;
35223;SDS011;21367;51.930;8.112;2022-12-29T14:15:43;13.55;;;1.63;;
35223;SDS011;21367;51.930;8.112;2022-12-29T14:20:50;16.52;;;1.85;;
35223;SDS011;21367;51.930;8.112;2022-12-29T14:26:09;10.27;;;1.67;;
35223;SDS011;21367;51.930;8.112;2022-12-29T14:31:35;12.73;;;1.55;;
35223;SDS011;21367;51.930;8.112;2022-12-29T14:36:42;11.18;;;1.33;;
35223;SDS011;21367;51.930;8.112;2022-12-29T14:41:59;11.60;;;1.45;;
35223;SDS011;21367;51.930;8.112;2022-12-29T14:47:06;12.60;;;1.48;;
35223;SDS011;21367;51.930;8.112;2022-12-29T14:52:15;22.05;;;1.70;;
35223;SDS011;21367;51.930;8.112;2022-12-29T14:57:25;9.38;;;1.15;;
35223;SDS011;21367;51.930;8.112;2022-12-29T15:02:36;9.48;;;1.92;;
35223;SDS011;21367;51.930;8.112;2022-12-29T15:07:44;20.65;;;4.05;;
35223;SDS011;21367;51.930;8.112;2022-12-29T15:12:49;15.77;;;2.17;;
35223;SDS011;21367;51.930;8.112;2022-12-29T15:17:58;12.98;;;2.47;;
35223;SDS011;21367;51.930;8.112;2022-12-29T15:23:17;9.05;;;1.40;;
35223;SDS011;21367;51.930;8.112;2022-12-29T15:28:20;12.27;;;1.80;;
35223;SDS011;21367;51.930;8.112;2022-12-29T15:33:28;7.50;;;1.70;;
35223;SDS011;21367;51.930;8.112;2022-12-29T15:38:32;18.85;;;3.55;;
35223;SDS011;21367;51.930;8.112;2022-12-29T15:43:42;15.55;;;2.42;;
35223;SDS011;21367;51.930;8.112;2022-12-29T15:48:57;12.45;;;1.58;;
35223;SDS011;21367;51.930;8.112;2022-12-29T15:54:01;5.53;;;1.30;;
35223;SDS011;21367;51.930;8.112;2022-12-29T15:59:16;9.07;;;1.40;;
35223;SDS011;21367;51.930;8.112;2022-12-29T16:04:30;15.38;;;2.08;;
35223;SDS011;21367;51.930;8.112;2022-12-29T16:09:35;9.43;;;1.67;;
35223;SDS011;21367;51.930;8.112;2022-12-29T16:14:46;13.68;;;1.98;;
35223;SDS011;21367;51.930;8.112;2022-12-29T16:19:57;12.07;;;1.63;;
35223;SDS011;21367;51.930;8.112;2022-12-29T16:25:03;18.60;;;4.30;;
35223;SDS011;21367;51.930;8.112;2022-12-29T16:30:17;19.27;;;2.90;;
35223;SDS011;21367;51.930;8.112;2022-12-29T16:35:28;14.48;;;1.80;;
35223;SDS011;21367;51.930;8.112;2022-12-29T16:40:49;24.70;;;4.93;;
35223;SDS011;21367;51.930;8.112;2022-12-29T16:51:28;25.63;;;5.90;;
35223;SDS011;21367;51.930;8.112;2022-12-29T16:56:34;13.23;;;1.95;;
35223;SDS011;21367;51.930;8.112;2022-12-29T17:01:39;16.10;;;2.87;;
35223;SDS011;21367;51.930;8.112;2022-12-29T17:06:45;10.75;;;2.15;;
35223;SDS011;21367;51.930;8.112;2022-12-29T17:16:58;11.45;;;2.17;;
35223;SDS011;21367;51.930;8.112;2022-12-29T17:22:08;12.13;;;2.30;;
35223;SDS011;21367;51.930;8.112;2022-12-29T17:27:18;18.08;;;2.20;;
35223;SDS011;21367;51.930;8.112;2022-12-29T17:32:26;17.40;;;2.97;;
35223;SDS011;21367;51.930;8.112;2022-12-29T17:37:34;8.20;;;2.22;;
35223;SDS011;21367;51.930;8.112;2022-12-29T17:42:39;6.97;;;1.17;;
35223;SDS011;21367;51.930;8.112;2022-12-29T17:47:46;8.68;;;1.83;;
35223;SDS011;21367;51.930;8.112;2022-12-29T17:52:53;9.73;;;1.75;;
35223;SDS011;21367;51.930;8.112;2022-12-29T17:57:58;10.38;;;2.38;;
35223;SDS011;21367;51.930;8.112;2022-12-29T18:03:02;4.68;;;1.45;;
35223;SDS011;21367;51.930;8.112;2022-12-29T18:08:10;14.45;;;1.98;;
35223;SDS011;21367;51.930;8.112;2022-12-29T18:13:17;16.08;;;2.08;;
35223;SDS011;21367;51.930;8.112;2022-12-29T18:18:28;16.42;;;2.08;;
35223;SDS011;21367;51.930;8.112;2022-12-29T18:23:34;14.35;;;1.80;;
35223;SDS011;21367;51.930;8.112;2022-12-29T18:28:39;10.02;;;1.85;;
35223;SDS011;21367;51.930;8.112;2022-12-29T18:33:44;7.45;;;0.95;;
35223;SDS011;21367;51.930;8.112;2022-12-29T18:38:51;2.70;;;0.70;;
35223;SDS011;21367;51.930;8.112;2022-12-29T18:43:55;9.57;;;0.70;;
35223;SDS011;21367;51.930;8.112;2022-12-29T18:48:59;5.65;;;0.90;;
35223;SDS011;21367;51.930;8.112;2022-12-29T18:54:08;4.18;;;0.80;;
35223;SDS011;21367;51.930;8.112;2022-12-29T18:59:20;8.55;;;1.50;;
35223;SDS011;21367;51.930;8.112;2022-12-29T19:04:24;5.00;;;0.80;;
35223;SDS011;21367;51.930;8.112;2022-12-29T19:09:31;4.30;;;1.02;;
35223;SDS011;21367;51.930;8.112;2022-12-29T19:14:34;5.25;;;1.00;;
35223;SDS011;21367;51.930;8.112;2022-12-29T19:19:38;5.07;;;0.70;;
35223;SDS011;21367;51.930;8.112;2022-12-29T19:24:45;2.83;;;0.90;;
35223;SDS011;21367;51.930;8.112;2022-12-29T19:29:48;5.70;;;0.80;;
35223;SDS011;21367;51.930;8.112;2022-12-29T19:34:52;2.05;;;0.80;;
35223;SDS011;21367;51.930;8.112;2022-12-29T19:39:58;10.00;;;0.90;;
35223;SDS011;21367;51.930;8.112;2022-12-29T19:45:02;5.68;;;1.20;;
35223;SDS011;21367;51.930;8.112;2022-12-29T19:50:07;2.03;;;0.75;;
35223;SDS011;21367;51.930;8.112;2022-12-29T20:00:19;8.50;;;1.30;;
35223;SDS011;21367;51.930;8.112;2022-12-29T20:05:23;9.85;;;1.60;;
35223;SDS011;21367;51.930;8.112;2022-12-29T20:10:30;12.05;;;1.98;;
35223;SDS011;21367;51.930;8.112;2022-12-29T20:15:33;14.48;;;2.08;;
35223;SDS011;21367;51.930;8.112;2022-12-29T20:20:37;14.05;;;1.95;;
35223;SDS011;21367;51.930;8.112;2022-12-29T20:25:43;20.25;;;2.75;;
35223;SDS011;21367;51.930;8.112;2022-12-29T20:36:03;26.02;;;3.10;;
35223;SDS011;21367;51.930;8.112;2022-12-29T20:41:10;23.73;;;2.40;;
35223;SDS011;21367;51.930;8.112;2022-12-29T20:46:15;23.13;;;3.08;;
35223;SDS011;21367;51.930;8.112;2022-12-29T20:51:19;17.40;;;2.63;;
35223;SDS011;21367;51.930;8.112;2022-12-29T20:56:26;24.10;;;3.08;;
35223;SDS011;21367;51.930;8.112;2022-12-29T21:01:31;21.63;;;3.15;;
35223;SDS011;21367;51.930;8.112;2022-12-29T21:06:38;23.20;;;3.05;;
35223;SDS011;21367;51.930;8.112;2022-12-29T21:11:44;28.25;;;3.17;;
35223;SDS011;21367;51.930;8.112;2022-12-29T21:16:48;18.75;;;2.75;;
35223;SDS011;21367;51.930;8.112;2022-12-29T21:21:52;21.40;;;3.10;;
35223;SDS011;21367;51.930;8.112;2022-12-29T21:27:01;17.83;;;2.35;;
35223;SDS011;21367;51.930;8.112;2022-12-29T21:32:05;26.40;;;3.20;;
35223;SDS011;21367;51.930;8.112;2022-12-29T21:37:09;24.70;;;2.75;;
35223;SDS011;21367;51.930;8.112;2022-12-29T21:42:15;21.90;;;2.40;;
35223;SDS011;21367;51.930;8.112;2022-12-29T21:47:18;22.95;;;3.08;;
35223;SDS011;21367;51.930;8.112;2022-12-29T21:52:22;20.02;;;2.40;;
35223;SDS011;21367;51.930;8.112;2022-12-29T21:57:29;16.70;;;2.63;;
35223;SDS011;21367;51.930;8.112;2022-12-29T22:02:45;23.13;;;3.40;;
35223;SDS011;21367;51.930;8.112;2022-12-29T22:08:01;25.20;;;2.53;;
35223;SDS011;21367;51.930;8.112;2022-12-29T22:13:20;30.13;;;2.78;;
35223;SDS011;21367;51.930;8.112;2022-12-29T22:23:27;24.33;;;2.85;;
35223;SDS011;21367;51.930;8.112;2022-12-29T22:28:35;22.70;;;2.45;;
35223;SDS011;21367;51.930;8.112;2022-12-29T22:33:43;30.05;;;2.63;;
35223;SDS011;21367;51.930;8.112;2022-12-29T22:38:47;22.50;;;3.13;;
35223;SDS011;21367;51.930;8.112;2022-12-29T22:43:53;26.10;;;2.58;;
35223;SDS011;21367;51.930;8.112;2022-12-29T22:48:59;25.25;;;2.75;;
35223;SDS011;21367;51.930;8.112;2022-12-29T22:54:03;34.65;;;2.83;;
35223;SDS011;21367;51.930;8.112;2022-12-29T22:59:09;15.45;;;2.30;;
35223;SDS011;21367;51.930;8.112;2022-12-29T23:04:14;24.10;;;2.88;;
35223;SDS011;21367;51.930;8.112;2022-12-29T23:09:19;20.15;;;2.78;;
35223;SDS011;21367;51.930;8.112;2022-12-29T23:14:26;14.63;;;2.08;;
35223;SDS011;21367;51.930;8.112;2022-12-29T23:24:34;28.55;;;2.70;;
35223;SDS011;21367;51.930;8.112;2022-12-29T23:29:40;17.10;;;2.65;;
35223;SDS011;21367;51.930;8.112;2022-12-29T23:34:44;20.83;;;2.30;;
35223;SDS011;21367;51.930;8.112;2022-12-29T23:39:47;30.35;;;3.88;;
35223;SDS011;21367;51.930;8.112;2022-12-29T23:44:54;20.92;;;2.67;;
35223;SDS011;21367;51.930;8.112;2022-12-29T23:49:58;20.85;;;2.50;;
35223;SDS011;21367;51.930;8.112;2022-12-29T23:55:02;20.95;;;2.55;;
